sensor_id;sensor_type;location;lat;lon;timestamp;temperature;humidity
18797;DHT22;9526;52.612;13.300;2023-09-12T00:02:00;18.00;99.90
18797;DHT22;9526;52.612;13.300;2023-09-12T00:04:24;18.00;99.90
18797;DHT22;9526;52.612;13.300;2023-09-12T00:06:48;18.00;99.90
18797;DHT22;9526;52.612;13.300;2023-09-12T00:09:11;17.90;99.90
18797;DHT22;9526;52.612;13.300;2023-09-12T00:11:35;17.90;99.90
18797;DHT22;9526;52.612;13.300;2023-09-12T00:13:59;17.90;99.90
18797;DHT22;9526;52.612;13.300;2023-09-12T00:16:21;17.90;99.90
18797;DHT22;9526;52.612;13.300;2023-09-12T00:18:47;17.80;99.90
18797;DHT22;9526;52.612;13.300;2023-09-12T00:21:10;17.80;99.90
18797;DHT22;9526;52.612;13.300;2023-09-12T00:23:34;17.80;99.90
18797;DHT22;9526;52.612;13.300;2023-09-12T00:25:58;17.80;99.90
18797;DHT22;9526;52.612;13.300;2023-09-12T00:28:22;17.80;99.90
18797;DHT22;9526;52.612;13.300;2023-09-12T00:30:46;17.70;99.90
18797;DHT22;9526;52.612;13.300;2023-09-12T00:33:09;17.70;99.90
18797;DHT22;9526;52.612;13.300;2023-09-12T00:35:34;17.70;99.90
18797;DHT22;9526;52.612;13.300;2023-09-12T00:37:58;17.70;99.90
18797;DHT22;9526;52.612;13.300;2023-09-12T00:40:22;17.60;99.90
18797;DHT22;9526;52.612;13.300;2023-09-12T00:42:46;17.60;99.90
18797;DHT22;9526;52.612;13.300;2023-09-12T00:45:10;17.60;99.90
18797;DHT22;9526;52.612;13.300;2023-09-12T00:47:33;17.60;99.90
18797;DHT22;9526;52.612;13.300;2023-09-12T00:49:58;17.60;99.90
18797;DHT22;9526;52.612;13.300;2023-09-12T00:52:24;17.60;99.90
18797;DHT22;9526;52.612;13.300;2023-09-12T00:54:48;17.50;99.90
18797;DHT22;9526;52.612;13.300;2023-09-12T00:57:13;17.50;99.90
18797;DHT22;9526;52.612;13.300;2023-09-12T00:59:37;17.50;99.90
18797;DHT22;9526;52.612;13.300;2023-09-12T01:02:01;17.50;99.90
18797;DHT22;9526;52.612;13.300;2023-09-12T01:04:26;17.50;99.90
18797;DHT22;9526;52.612;13.300;2023-09-12T01:06:56;17.40;99.90
18797;DHT22;9526;52.612;13.300;2023-09-12T01:09:21;17.40;99.90
18797;DHT22;9526;52.612;13.300;2023-09-12T01:11:45;17.40;99.90
18797;DHT22;9526;52.612;13.300;2023-09-12T01:14:09;17.40;99.90
18797;DHT22;9526;52.612;13.300;2023-09-12T01:16:32;17.40;99.90
18797;DHT22;9526;52.612;13.300;2023-09-12T01:18:56;17.30;99.90
18797;DHT22;9526;52.612;13.300;2023-09-12T01:21:56;17.30;99.90
18797;DHT22;9526;52.612;13.300;2023-09-12T01:25:07;17.30;99.90
18797;DHT22;9526;52.612;13.300;2023-09-12T01:27:35;17.30;99.90
18797;DHT22;9526;52.612;13.300;2023-09-12T01:30:03;17.30;99.90
18797;DHT22;9526;52.612;13.300;2023-09-12T01:32:29;17.30;99.90
18797;DHT22;9526;52.612;13.300;2023-09-12T01:34:53;17.20;99.90
18797;DHT22;9526;52.612;13.300;2023-09-12T01:37:17;17.20;99.90
18797;DHT22;9526;52.612;13.300;2023-09-12T01:39:40;17.20;99.90
18797;DHT22;9526;52.612;13.300;2023-09-12T01:42:05;17.20;99.90
18797;DHT22;9526;52.612;13.300;2023-09-12T01:44:31;17.10;99.90
18797;DHT22;9526;52.612;13.300;2023-09-12T01:46:59;17.10;99.90
18797;DHT22;9526;52.612;13.300;2023-09-12T01:49:27;17.10;99.90
18797;DHT22;9526;52.612;13.300;2023-09-12T01:51:52;17.10;99.90
18797;DHT22;9526;52.612;13.300;2023-09-12T01:54:16;17.10;99.90
18797;DHT22;9526;52.612;13.300;2023-09-12T01:56:41;17.10;99.90
18797;DHT22;9526;52.612;13.300;2023-09-12T01:59:06;17.00;99.90
18797;DHT22;9526;52.612;13.300;2023-09-12T02:01:31;17.00;99.90
18797;DHT22;9526;52.612;13.300;2023-09-12T02:03:55;17.00;99.90
18797;DHT22;9526;52.612;13.300;2023-09-12T02:06:18;17.00;99.90
18797;DHT22;9526;52.612;13.300;2023-09-12T02:08:42;17.00;99.90
18797;DHT22;9526;52.612;13.300;2023-09-12T02:11:06;16.90;99.90
18797;DHT22;9526;52.612;13.300;2023-09-12T02:13:29;16.90;99.90
18797;DHT22;9526;52.612;13.300;2023-09-12T02:15:58;16.90;99.90
18797;DHT22;9526;52.612;13.300;2023-09-12T02:18:24;16.90;99.90
18797;DHT22;9526;52.612;13.300;2023-09-12T02:20:48;16.90;99.90
18797;DHT22;9526;52.612;13.300;2023-09-12T02:23:11;16.90;99.90
18797;DHT22;9526;52.612;13.300;2023-09-12T02:25:37;16.90;99.90
18797;DHT22;9526;52.612;13.300;2023-09-12T02:28:01;16.80;99.90
18797;DHT22;9526;52.612;13.300;2023-09-12T02:30:25;16.80;99.90
18797;DHT22;9526;52.612;13.300;2023-09-12T02:32:48;16.80;99.90
18797;DHT22;9526;52.612;13.300;2023-09-12T02:35:14;16.80;99.90
18797;DHT22;9526;52.612;13.300;2023-09-12T02:37:37;16.80;99.90
18797;DHT22;9526;52.612;13.300;2023-09-12T02:40:01;16.80;99.90
18797;DHT22;9526;52.612;13.300;2023-09-12T02:42:26;16.80;99.90
18797;DHT22;9526;52.612;13.300;2023-09-12T02:44:50;16.80;99.90
18797;DHT22;9526;52.612;13.300;2023-09-12T02:47:14;16.70;99.90
18797;DHT22;9526;52.612;13.300;2023-09-12T02:49:38;16.70;99.90
18797;DHT22;9526;52.612;13.300;2023-09-12T02:52:03;16.70;99.90
18797;DHT22;9526;52.612;13.300;2023-09-12T02:54:27;16.70;99.90
18797;DHT22;9526;52.612;13.300;2023-09-12T02:56:51;16.70;99.90
18797;DHT22;9526;52.612;13.300;2023-09-12T02:59:14;16.60;99.90
18797;DHT22;9526;52.612;13.300;2023-09-12T03:01:38;16.60;99.90
18797;DHT22;9526;52.612;13.300;2023-09-12T03:04:03;16.60;99.90
18797;DHT22;9526;52.612;13.300;2023-09-12T03:06:28;16.60;99.90
18797;DHT22;9526;52.612;13.300;2023-09-12T03:08:53;16.60;99.90
18797;DHT22;9526;52.612;13.300;2023-09-12T03:11:17;16.60;99.90
18797;DHT22;9526;52.612;13.300;2023-09-12T03:13:41;16.50;99.90
18797;DHT22;9526;52.612;13.300;2023-09-12T03:16:05;16.50;99.90
18797;DHT22;9526;52.612;13.300;2023-09-12T03:18:33;16.50;99.90
18797;DHT22;9526;52.612;13.300;2023-09-12T03:20:56;16.50;99.90
18797;DHT22;9526;52.612;13.300;2023-09-12T03:23:21;16.50;99.90
18797;DHT22;9526;52.612;13.300;2023-09-12T03:25:46;16.50;99.90
18797;DHT22;9526;52.612;13.300;2023-09-12T03:28:10;16.50;99.90
18797;DHT22;9526;52.612;13.300;2023-09-12T03:30:35;16.40;99.90
18797;DHT22;9526;52.612;13.300;2023-09-12T03:33:01;16.40;99.90
18797;DHT22;9526;52.612;13.300;2023-09-12T03:35:26;16.40;99.90
18797;DHT22;9526;52.612;13.300;2023-09-12T03:37:49;16.40;99.90
18797;DHT22;9526;52.612;13.300;2023-09-12T03:40:14;16.40;99.90
18797;DHT22;9526;52.612;13.300;2023-09-12T03:42:39;16.40;99.90
18797;DHT22;9526;52.612;13.300;2023-09-12T03:45:05;16.40;99.90
18797;DHT22;9526;52.612;13.300;2023-09-12T03:47:30;16.40;99.90
18797;DHT22;9526;52.612;13.300;2023-09-12T03:49:54;16.30;99.90
18797;DHT22;9526;52.612;13.300;2023-09-12T03:52:18;16.30;99.90
18797;DHT22;9526;52.612;13.300;2023-09-12T03:54:41;16.30;99.90
18797;DHT22;9526;52.612;13.300;2023-09-12T03:57:05;16.20;99.90
18797;DHT22;9526;52.612;13.300;2023-09-12T03:59:30;16.30;99.90
18797;DHT22;9526;52.612;13.300;2023-09-12T04:01:54;16.30;99.90
18797;DHT22;9526;52.612;13.300;2023-09-12T04:04:18;16.20;99.90
18797;DHT22;9526;52.612;13.300;2023-09-12T04:06:42;16.20;99.90
18797;DHT22;9526;52.612;13.300;2023-09-12T04:09:06;16.20;99.90
18797;DHT22;9526;52.612;13.300;2023-09-12T04:11:30;16.20;99.90
18797;DHT22;9526;52.612;13.300;2023-09-12T04:14:07;16.10;99.90
18797;DHT22;9526;52.612;13.300;2023-09-12T04:16:32;16.10;99.90
18797;DHT22;9526;52.612;13.300;2023-09-12T04:18:59;16.10;99.90
18797;DHT22;9526;52.612;13.300;2023-09-12T04:21:23;16.10;99.90
18797;DHT22;9526;52.612;13.300;2023-09-12T04:23:47;16.10;99.90
18797;DHT22;9526;52.612;13.300;2023-09-12T04:26:12;16.10;99.90
18797;DHT22;9526;52.612;13.300;2023-09-12T04:28:36;16.10;99.90
18797;DHT22;9526;52.612;13.300;2023-09-12T04:31:02;16.00;99.90
18797;DHT22;9526;52.612;13.300;2023-09-12T04:33:27;16.10;99.90
18797;DHT22;9526;52.612;13.300;2023-09-12T04:35:51;16.00;99.90
18797;DHT22;9526;52.612;13.300;2023-09-12T04:38:15;16.00;99.90
18797;DHT22;9526;52.612;13.300;2023-09-12T04:40:39;16.00;99.90
18797;DHT22;9526;52.612;13.300;2023-09-12T04:43:03;16.00;99.90
18797;DHT22;9526;52.612;13.300;2023-09-12T04:45:26;16.00;99.90
18797;DHT22;9526;52.612;13.300;2023-09-12T04:47:50;16.00;99.90
18797;DHT22;9526;52.612;13.300;2023-09-12T04:50:15;16.10;99.90
18797;DHT22;9526;52.612;13.300;2023-09-12T04:52:39;16.10;99.90
18797;DHT22;9526;52.612;13.300;2023-09-12T04:55:04;16.00;99.90
18797;DHT22;9526;52.612;13.300;2023-09-12T04:57:28;16.10;99.90
18797;DHT22;9526;52.612;13.300;2023-09-12T04:59:53;16.10;99.90
18797;DHT22;9526;52.612;13.300;2023-09-12T05:02:17;16.10;99.90
18797;DHT22;9526;52.612;13.300;2023-09-12T05:04:41;16.10;99.90
18797;DHT22;9526;52.612;13.300;2023-09-12T05:07:06;16.10;99.90
18797;DHT22;9526;52.612;13.300;2023-09-12T05:09:29;16.10;99.90
18797;DHT22;9526;52.612;13.300;2023-09-12T05:11:53;16.20;99.90
18797;DHT22;9526;52.612;13.300;2023-09-12T05:14:17;16.20;99.90
18797;DHT22;9526;52.612;13.300;2023-09-12T05:16:41;16.20;99.90
18797;DHT22;9526;52.612;13.300;2023-09-12T05:19:06;16.30;99.90
18797;DHT22;9526;52.612;13.300;2023-09-12T05:21:29;16.30;99.90
18797;DHT22;9526;52.612;13.300;2023-09-12T05:23:55;16.30;99.90
18797;DHT22;9526;52.612;13.300;2023-09-12T05:26:18;16.40;99.90
18797;DHT22;9526;52.612;13.300;2023-09-12T05:28:42;16.50;99.90
18797;DHT22;9526;52.612;13.300;2023-09-12T05:31:06;16.50;99.90
18797;DHT22;9526;52.612;13.300;2023-09-12T05:33:30;16.60;99.90
18797;DHT22;9526;52.612;13.300;2023-09-12T05:35:55;16.70;99.90
18797;DHT22;9526;52.612;13.300;2023-09-12T05:38:19;16.70;99.90
18797;DHT22;9526;52.612;13.300;2023-09-12T05:40:44;16.80;99.90
18797;DHT22;9526;52.612;13.300;2023-09-12T05:43:08;16.90;99.90
18797;DHT22;9526;52.612;13.300;2023-09-12T05:45:31;16.90;99.90
18797;DHT22;9526;52.612;13.300;2023-09-12T05:47:56;17.00;99.90
18797;DHT22;9526;52.612;13.300;2023-09-12T05:50:21;17.10;99.90
18797;DHT22;9526;52.612;13.300;2023-09-12T05:52:45;17.20;99.90
18797;DHT22;9526;52.612;13.300;2023-09-12T05:55:09;17.20;99.90
18797;DHT22;9526;52.612;13.300;2023-09-12T05:57:35;17.30;99.90
18797;DHT22;9526;52.612;13.300;2023-09-12T05:59:59;17.30;99.90
18797;DHT22;9526;52.612;13.300;2023-09-12T06:02:33;17.40;99.90
18797;DHT22;9526;52.612;13.300;2023-09-12T06:04:56;17.50;99.90
18797;DHT22;9526;52.612;13.300;2023-09-12T06:07:21;17.60;99.90
18797;DHT22;9526;52.612;13.300;2023-09-12T06:09:45;17.90;99.90
18797;DHT22;9526;52.612;13.300;2023-09-12T06:12:09;18.10;99.90
18797;DHT22;9526;52.612;13.300;2023-09-12T06:14:35;18.40;99.90
18797;DHT22;9526;52.612;13.300;2023-09-12T06:16:58;18.70;99.90
18797;DHT22;9526;52.612;13.300;2023-09-12T06:19:22;19.10;99.90
18797;DHT22;9526;52.612;13.300;2023-09-12T06:21:47;19.40;99.90
18797;DHT22;9526;52.612;13.300;2023-09-12T06:24:12;19.80;99.90
18797;DHT22;9526;52.612;13.300;2023-09-12T06:26:37;20.10;99.90
18797;DHT22;9526;52.612;13.300;2023-09-12T06:29:01;20.40;99.90
18797;DHT22;9526;52.612;13.300;2023-09-12T06:31:27;20.80;99.90
18797;DHT22;9526;52.612;13.300;2023-09-12T06:33:51;21.10;99.90
18797;DHT22;9526;52.612;13.300;2023-09-12T06:36:15;21.60;99.90
18797;DHT22;9526;52.612;13.300;2023-09-12T06:38:39;22.00;99.90
18797;DHT22;9526;52.612;13.300;2023-09-12T06:41:03;22.50;99.90
18797;DHT22;9526;52.612;13.300;2023-09-12T06:43:27;23.00;99.90
18797;DHT22;9526;52.612;13.300;2023-09-12T06:45:51;23.40;99.90
18797;DHT22;9526;52.612;13.300;2023-09-12T06:48:16;23.70;99.90
18797;DHT22;9526;52.612;13.300;2023-09-12T06:50:41;24.00;99.90
18797;DHT22;9526;52.612;13.300;2023-09-12T06:53:10;24.20;99.90
18797;DHT22;9526;52.612;13.300;2023-09-12T06:55:35;24.20;99.90
18797;DHT22;9526;52.612;13.300;2023-09-12T06:57:59;24.40;99.90
18797;DHT22;9526;52.612;13.300;2023-09-12T07:00:23;24.70;99.90
18797;DHT22;9526;52.612;13.300;2023-09-12T07:02:49;24.80;99.90
18797;DHT22;9526;52.612;13.300;2023-09-12T07:05:15;24.90;99.90
18797;DHT22;9526;52.612;13.300;2023-09-12T07:07:39;24.50;99.90
18797;DHT22;9526;52.612;13.300;2023-09-12T07:10:03;24.50;99.90
18797;DHT22;9526;52.612;13.300;2023-09-12T07:12:44;24.50;99.90
18797;DHT22;9526;52.612;13.300;2023-09-12T07:15:08;24.40;99.90
18797;DHT22;9526;52.612;13.300;2023-09-12T07:17:33;24.40;99.90
18797;DHT22;9526;52.612;13.300;2023-09-12T07:19:58;24.40;99.90
18797;DHT22;9526;52.612;13.300;2023-09-12T07:22:23;24.40;99.90
18797;DHT22;9526;52.612;13.300;2023-09-12T07:24:48;24.30;99.90
18797;DHT22;9526;52.612;13.300;2023-09-12T07:27:12;24.10;99.90
18797;DHT22;9526;52.612;13.300;2023-09-12T07:29:36;24.10;99.90
18797;DHT22;9526;52.612;13.300;2023-09-12T07:32:01;24.10;99.90
18797;DHT22;9526;52.612;13.300;2023-09-12T07:34:24;24.10;99.90
18797;DHT22;9526;52.612;13.300;2023-09-12T07:36:48;24.10;99.90
18797;DHT22;9526;52.612;13.300;2023-09-12T07:39:14;24.10;99.90
18797;DHT22;9526;52.612;13.300;2023-09-12T07:41:38;24.10;99.90
18797;DHT22;9526;52.612;13.300;2023-09-12T07:44:02;24.00;99.90
18797;DHT22;9526;52.612;13.300;2023-09-12T07:46:27;24.00;99.90
18797;DHT22;9526;52.612;13.300;2023-09-12T07:48:51;24.00;99.90
18797;DHT22;9526;52.612;13.300;2023-09-12T07:51:16;24.00;99.90
18797;DHT22;9526;52.612;13.300;2023-09-12T07:53:40;24.00;99.90
18797;DHT22;9526;52.612;13.300;2023-09-12T07:56:08;24.10;99.90
18797;DHT22;9526;52.612;13.300;2023-09-12T07:58:32;24.10;99.90
18797;DHT22;9526;52.612;13.300;2023-09-12T08:00:56;24.20;99.90
18797;DHT22;9526;52.612;13.300;2023-09-12T08:03:20;24.10;99.90
18797;DHT22;9526;52.612;13.300;2023-09-12T08:05:44;24.10;99.90
18797;DHT22;9526;52.612;13.300;2023-09-12T08:08:08;24.20;99.90
18797;DHT22;9526;52.612;13.300;2023-09-12T08:10:32;24.10;99.90
18797;DHT22;9526;52.612;13.300;2023-09-12T08:12:57;24.20;99.90
18797;DHT22;9526;52.612;13.300;2023-09-12T08:15:21;24.20;99.90
18797;DHT22;9526;52.612;13.300;2023-09-12T08:17:45;24.30;99.90
18797;DHT22;9526;52.612;13.300;2023-09-12T08:20:13;24.30;99.90
18797;DHT22;9526;52.612;13.300;2023-09-12T08:22:37;24.30;99.90
18797;DHT22;9526;52.612;13.300;2023-09-12T08:25:01;24.30;99.90
18797;DHT22;9526;52.612;13.300;2023-09-12T08:27:25;24.30;99.90
18797;DHT22;9526;52.612;13.300;2023-09-12T08:29:50;24.40;99.90
18797;DHT22;9526;52.612;13.300;2023-09-12T08:32:14;24.40;99.90
18797;DHT22;9526;52.612;13.300;2023-09-12T08:34:37;24.50;99.90
18797;DHT22;9526;52.612;13.300;2023-09-12T08:37:01;24.60;99.90
18797;DHT22;9526;52.612;13.300;2023-09-12T08:39:26;24.60;99.90
18797;DHT22;9526;52.612;13.300;2023-09-12T08:41:50;24.70;99.90
18797;DHT22;9526;52.612;13.300;2023-09-12T08:44:15;24.80;99.90
18797;DHT22;9526;52.612;13.300;2023-09-12T08:46:42;24.80;99.90
18797;DHT22;9526;52.612;13.300;2023-09-12T08:49:06;24.90;99.90
18797;DHT22;9526;52.612;13.300;2023-09-12T08:51:31;24.90;99.90
18797;DHT22;9526;52.612;13.300;2023-09-12T08:53:55;25.00;99.90
18797;DHT22;9526;52.612;13.300;2023-09-12T08:56:19;25.00;99.90
18797;DHT22;9526;52.612;13.300;2023-09-12T08:58:43;25.10;99.90
18797;DHT22;9526;52.612;13.300;2023-09-12T09:01:08;25.20;99.90
18797;DHT22;9526;52.612;13.300;2023-09-12T09:03:34;25.30;99.90
18797;DHT22;9526;52.612;13.300;2023-09-12T09:05:58;25.30;99.90
18797;DHT22;9526;52.612;13.300;2023-09-12T09:08:23;25.40;99.90
18797;DHT22;9526;52.612;13.300;2023-09-12T09:10:56;25.50;99.90
18797;DHT22;9526;52.612;13.300;2023-09-12T09:13:20;25.60;99.90
18797;DHT22;9526;52.612;13.300;2023-09-12T09:15:43;25.70;99.90
18797;DHT22;9526;52.612;13.300;2023-09-12T09:18:07;25.80;99.90
18797;DHT22;9526;52.612;13.300;2023-09-12T09:20:37;25.90;99.90
18797;DHT22;9526;52.612;13.300;2023-09-12T09:23:04;26.10;99.90
18797;DHT22;9526;52.612;13.300;2023-09-12T09:25:29;26.20;99.90
18797;DHT22;9526;52.612;13.300;2023-09-12T09:27:53;26.30;99.90
18797;DHT22;9526;52.612;13.300;2023-09-12T09:30:17;26.30;99.90
18797;DHT22;9526;52.612;13.300;2023-09-12T09:32:42;26.50;99.90
18797;DHT22;9526;52.612;13.300;2023-09-12T09:35:09;26.60;99.90
18797;DHT22;9526;52.612;13.300;2023-09-12T09:37:35;26.60;99.90
18797;DHT22;9526;52.612;13.300;2023-09-12T09:39:59;26.70;99.90
18797;DHT22;9526;52.612;13.300;2023-09-12T09:42:23;26.70;99.90
18797;DHT22;9526;52.612;13.300;2023-09-12T09:44:47;26.80;99.90
18797;DHT22;9526;52.612;13.300;2023-09-12T09:47:12;26.90;99.90
18797;DHT22;9526;52.612;13.300;2023-09-12T09:49:36;27.00;99.90
18797;DHT22;9526;52.612;13.300;2023-09-12T09:52:03;27.20;99.90
18797;DHT22;9526;52.612;13.300;2023-09-12T09:54:29;27.30;99.90
18797;DHT22;9526;52.612;13.300;2023-09-12T09:56:54;27.30;99.90
18797;DHT22;9526;52.612;13.300;2023-09-12T09:59:20;27.50;99.90
18797;DHT22;9526;52.612;13.300;2023-09-12T10:01:45;27.80;99.90
18797;DHT22;9526;52.612;13.300;2023-09-12T10:04:09;28.00;99.90
18797;DHT22;9526;52.612;13.300;2023-09-12T10:06:35;28.10;99.90
18797;DHT22;9526;52.612;13.300;2023-09-12T10:09:02;28.30;99.90
18797;DHT22;9526;52.612;13.300;2023-09-12T10:11:32;28.40;99.90
18797;DHT22;9526;52.612;13.300;2023-09-12T10:13:57;28.60;99.90
18797;DHT22;9526;52.612;13.300;2023-09-12T10:16:25;28.70;99.90
18797;DHT22;9526;52.612;13.300;2023-09-12T10:18:58;28.70;99.90
18797;DHT22;9526;52.612;13.300;2023-09-12T10:21:28;29.10;99.90
18797;DHT22;9526;52.612;13.300;2023-09-12T10:23:55;29.20;99.90
18797;DHT22;9526;52.612;13.300;2023-09-12T10:26:21;29.20;99.90
18797;DHT22;9526;52.612;13.300;2023-09-12T10:28:48;29.30;99.90
18797;DHT22;9526;52.612;13.300;2023-09-12T10:31:14;29.60;99.90
18797;DHT22;9526;52.612;13.300;2023-09-12T10:33:39;29.90;99.90
18797;DHT22;9526;52.612;13.300;2023-09-12T10:36:04;30.20;99.90
18797;DHT22;9526;52.612;13.300;2023-09-12T10:38:30;30.20;99.90
18797;DHT22;9526;52.612;13.300;2023-09-12T10:40:56;30.50;99.90
18797;DHT22;9526;52.612;13.300;2023-09-12T10:43:21;30.60;99.90
18797;DHT22;9526;52.612;13.300;2023-09-12T10:45:48;30.70;99.90
18797;DHT22;9526;52.612;13.300;2023-09-12T10:48:13;31.00;99.90
18797;DHT22;9526;52.612;13.300;2023-09-12T10:50:38;30.90;99.90
18797;DHT22;9526;52.612;13.300;2023-09-12T10:53:10;30.70;99.90
18797;DHT22;9526;52.612;13.300;2023-09-12T10:55:34;30.60;99.90
18797;DHT22;9526;52.612;13.300;2023-09-12T10:58:02;30.60;99.90
18797;DHT22;9526;52.612;13.300;2023-09-12T11:00:27;30.40;99.90
18797;DHT22;9526;52.612;13.300;2023-09-12T11:02:52;30.40;99.90
18797;DHT22;9526;52.612;13.300;2023-09-12T11:05:35;30.60;99.90
18797;DHT22;9526;52.612;13.300;2023-09-12T11:08:00;30.60;99.90
18797;DHT22;9526;52.612;13.300;2023-09-12T11:10:26;30.60;99.90
18797;DHT22;9526;52.612;13.300;2023-09-12T11:12:54;30.40;99.90
18797;DHT22;9526;52.612;13.300;2023-09-12T11:15:20;30.50;99.90
18797;DHT22;9526;52.612;13.300;2023-09-12T11:17:45;30.60;99.90
18797;DHT22;9526;52.612;13.300;2023-09-12T11:20:12;30.50;99.90
18797;DHT22;9526;52.612;13.300;2023-09-12T11:22:37;30.70;99.90
18797;DHT22;9526;52.612;13.300;2023-09-12T11:25:03;30.80;99.90
18797;DHT22;9526;52.612;13.300;2023-09-12T11:27:32;30.80;99.90
18797;DHT22;9526;52.612;13.300;2023-09-12T11:30:03;30.60;99.90
18797;DHT22;9526;52.612;13.300;2023-09-12T11:32:30;30.90;99.90
18797;DHT22;9526;52.612;13.300;2023-09-12T11:34:55;30.90;99.90
18797;DHT22;9526;52.612;13.300;2023-09-12T11:37:24;30.70;99.90
18797;DHT22;9526;52.612;13.300;2023-09-12T11:39:48;31.00;99.90
18797;DHT22;9526;52.612;13.300;2023-09-12T11:42:13;31.20;99.90
18797;DHT22;9526;52.612;13.300;2023-09-12T11:44:37;31.00;99.90
18797;DHT22;9526;52.612;13.300;2023-09-12T11:47:02;31.10;99.90
18797;DHT22;9526;52.612;13.300;2023-09-12T11:49:28;31.20;99.90
18797;DHT22;9526;52.612;13.300;2023-09-12T11:51:58;31.20;99.90
18797;DHT22;9526;52.612;13.300;2023-09-12T11:54:26;31.20;99.90
18797;DHT22;9526;52.612;13.300;2023-09-12T11:56:50;31.40;99.90
18797;DHT22;9526;52.612;13.300;2023-09-12T11:59:19;31.40;99.10
18797;DHT22;9526;52.612;13.300;2023-09-12T12:01:43;31.30;99.90
18797;DHT22;9526;52.612;13.300;2023-09-12T12:04:07;31.50;99.90
18797;DHT22;9526;52.612;13.300;2023-09-12T12:06:32;31.60;99.70
18797;DHT22;9526;52.612;13.300;2023-09-12T12:08:58;31.80;99.90
18797;DHT22;9526;52.612;13.300;2023-09-12T12:11:27;31.80;99.90
18797;DHT22;9526;52.612;13.300;2023-09-12T12:13:51;31.60;99.10
18797;DHT22;9526;52.612;13.300;2023-09-12T12:16:15;31.60;99.90
18797;DHT22;9526;52.612;13.300;2023-09-12T12:18:40;31.80;99.40
18797;DHT22;9526;52.612;13.300;2023-09-12T12:21:04;31.80;99.90
18797;DHT22;9526;52.612;13.300;2023-09-12T12:23:28;31.80;98.80
18797;DHT22;9526;52.612;13.300;2023-09-12T12:25:51;31.60;99.60
18797;DHT22;9526;52.612;13.300;2023-09-12T12:28:17;31.60;98.60
18797;DHT22;9526;52.612;13.300;2023-09-12T12:30:40;31.50;98.40
18797;DHT22;9526;52.612;13.300;2023-09-12T12:33:08;31.60;99.90
18797;DHT22;9526;52.612;13.300;2023-09-12T12:35:59;31.60;99.90
18797;DHT22;9526;52.612;13.300;2023-09-12T12:38:23;32.00;99.90
18797;DHT22;9526;52.612;13.300;2023-09-12T12:40:47;31.80;99.90
18797;DHT22;9526;52.612;13.300;2023-09-12T12:43:17;31.90;99.90
18797;DHT22;9526;52.612;13.300;2023-09-12T12:45:52;31.90;99.90
18797;DHT22;9526;52.612;13.300;2023-09-12T12:48:16;32.20;99.90
18797;DHT22;9526;52.612;13.300;2023-09-12T12:50:40;32.40;99.90
18797;DHT22;9526;52.612;13.300;2023-09-12T12:53:05;32.30;97.00
18797;DHT22;9526;52.612;13.300;2023-09-12T12:55:29;32.40;99.10
18797;DHT22;9526;52.612;13.300;2023-09-12T12:57:57;32.10;96.20
18797;DHT22;9526;52.612;13.300;2023-09-12T13:00:22;31.90;97.40
18797;DHT22;9526;52.612;13.300;2023-09-12T13:02:46;32.00;98.20
18797;DHT22;9526;52.612;13.300;2023-09-12T13:05:20;31.80;96.60
18797;DHT22;9526;52.612;13.300;2023-09-12T13:07:49;31.60;97.60
18797;DHT22;9526;52.612;13.300;2023-09-12T13:10:13;32.00;98.80
18797;DHT22;9526;52.612;13.300;2023-09-12T13:12:37;31.70;97.10
18797;DHT22;9526;52.612;13.300;2023-09-12T13:15:01;31.80;97.20
18797;DHT22;9526;52.612;13.300;2023-09-12T13:17:27;31.90;98.50
18797;DHT22;9526;52.612;13.300;2023-09-12T13:19:50;32.20;99.90
18797;DHT22;9526;52.612;13.300;2023-09-12T13:22:14;32.40;98.00
18797;DHT22;9526;52.612;13.300;2023-09-12T13:24:38;32.40;99.60
18797;DHT22;9526;52.612;13.300;2023-09-12T13:27:02;32.50;97.10
18797;DHT22;9526;52.612;13.300;2023-09-12T13:29:25;32.70;99.10
18797;DHT22;9526;52.612;13.300;2023-09-12T13:31:49;32.70;97.30
18797;DHT22;9526;52.612;13.300;2023-09-12T13:34:14;32.80;97.10
18797;DHT22;9526;52.612;13.300;2023-09-12T13:36:40;32.90;97.50
18797;DHT22;9526;52.612;13.300;2023-09-12T13:39:05;32.80;99.40
18797;DHT22;9526;52.612;13.300;2023-09-12T13:41:30;32.80;99.40
18797;DHT22;9526;52.612;13.300;2023-09-12T13:43:53;32.80;96.50
18797;DHT22;9526;52.612;13.300;2023-09-12T13:46:17;32.90;99.60
18797;DHT22;9526;52.612;13.300;2023-09-12T13:48:41;32.70;96.60
18797;DHT22;9526;52.612;13.300;2023-09-12T13:51:06;32.70;98.70
18797;DHT22;9526;52.612;13.300;2023-09-12T13:53:30;32.80;97.70
18797;DHT22;9526;52.612;13.300;2023-09-12T13:55:54;32.80;96.50
18797;DHT22;9526;52.612;13.300;2023-09-12T13:58:19;32.60;97.80
18797;DHT22;9526;52.612;13.300;2023-09-12T14:00:44;32.70;98.90
18797;DHT22;9526;52.612;13.300;2023-09-12T14:03:08;32.70;97.00
18797;DHT22;9526;52.612;13.300;2023-09-12T14:05:32;32.10;97.60
18797;DHT22;9526;52.612;13.300;2023-09-12T14:07:59;31.90;99.00
18797;DHT22;9526;52.612;13.300;2023-09-12T14:10:23;31.80;98.30
18797;DHT22;9526;52.612;13.300;2023-09-12T14:12:58;31.90;97.50
18797;DHT22;9526;52.612;13.300;2023-09-12T14:15:40;31.90;98.60
18797;DHT22;9526;52.612;13.300;2023-09-12T14:18:04;31.60;97.80
18797;DHT22;9526;52.612;13.300;2023-09-12T14:20:29;31.20;98.80
18797;DHT22;9526;52.612;13.300;2023-09-12T14:22:53;30.90;99.90
18797;DHT22;9526;52.612;13.300;2023-09-12T14:25:20;30.90;99.90
18797;DHT22;9526;52.612;13.300;2023-09-12T14:27:45;30.70;99.90
18797;DHT22;9526;52.612;13.300;2023-09-12T14:30:10;30.50;99.90
18797;DHT22;9526;52.612;13.300;2023-09-12T14:32:35;30.20;99.90
18797;DHT22;9526;52.612;13.300;2023-09-12T14:34:59;29.90;99.90
18797;DHT22;9526;52.612;13.300;2023-09-12T14:37:23;29.80;99.90
18797;DHT22;9526;52.612;13.300;2023-09-12T14:39:49;29.50;99.90
18797;DHT22;9526;52.612;13.300;2023-09-12T14:42:14;29.00;99.90
18797;DHT22;9526;52.612;13.300;2023-09-12T14:44:38;28.80;99.90
18797;DHT22;9526;52.612;13.300;2023-09-12T14:47:02;28.50;99.90
18797;DHT22;9526;52.612;13.300;2023-09-12T14:49:26;28.40;99.90
18797;DHT22;9526;52.612;13.300;2023-09-12T14:51:51;28.30;99.90
18797;DHT22;9526;52.612;13.300;2023-09-12T14:54:15;28.30;99.90
18797;DHT22;9526;52.612;13.300;2023-09-12T14:56:39;28.10;99.90
18797;DHT22;9526;52.612;13.300;2023-09-12T14:59:05;28.10;99.90
18797;DHT22;9526;52.612;13.300;2023-09-12T15:01:29;27.90;99.90
18797;DHT22;9526;52.612;13.300;2023-09-12T15:03:53;27.70;99.90
18797;DHT22;9526;52.612;13.300;2023-09-12T15:06:17;27.80;99.90
18797;DHT22;9526;52.612;13.300;2023-09-12T15:08:43;27.70;99.90
18797;DHT22;9526;52.612;13.300;2023-09-12T15:11:07;27.60;99.90
18797;DHT22;9526;52.612;13.300;2023-09-12T15:13:30;27.60;99.90
18797;DHT22;9526;52.612;13.300;2023-09-12T15:15:55;27.50;99.90
18797;DHT22;9526;52.612;13.300;2023-09-12T15:18:19;27.40;99.90